Terminal Aerodrome Forecast
Issued by NWS

Home | Current Version | Previous Version | Graphics & Text | Print | Product List | Glossary On
Versions: 1 2 3 4 5 6 7 8 9 10 11 12 13 14 15 16 17 18
000
FTUS41 KCLE 220533
TAFFDY
TAF
KFDY 220533Z 2206/2306 21005KT P6SM BKN080
      TEMPO 2206/2210 6SM BR BKN025
     FM221000 18003KT 4SM BR OVC025
     FM221200 18003KT 4SM BR OVC012
      TEMPO 2212/2216 OVC008
     FM221600 18006KT 6SM BR OVC015
     FM222000 21008KT P6SM OVC025
     FM222300 22008KT P6SM BKN045
     FM230400 18010KT 6SM BR OVC025=

USA.gov is the U.S. government's official web portal to all federal, state and local government web resources and services.